MIV weather

Millville Municipal Airport
Millville, New Jersey, United States

Public forecast

Using degrees Fahrenheit for public forecast. Weather courtesy of forecast.io.

METAR (pilot weather report)

Retrieved 2019/09/19 19:54 UTC (7 minutes ago):

KMIV 191954Z AUTO 00000KT 10SM CLR 21/07 A3030 RMK AO2 SLP258 T02110067

TAF (pilot weather forecast)

Retrieved 2019/09/19 18:36 UTC (1 hour ago):

TAF KMIV 191733Z 1918/2018 07007KT P6SM FEW040 FM201400 29005KT P6SM SKC